Time;durP1;ratioP1;P1;durP2;ratioP2;P2;SDS_P1;SDS_P2;PMS_P1;PMS_P2;Temp;Humidity;BMP_temperature;BMP_pressure;BME280_temperature;BME280_humidity;BME280_pressure;Samples;Min_cycle;Max_cycle;Signal;HPM_P1;HPM_P2
2021/12/01 00:00:28;;;;;;;54.70;34.55;;;9.30;99.90;;;;;;5010739;28;20057;-68
2021/12/01 00:02:55;;;;;;;51.83;35.67;;;9.30;99.90;;;;;;4994268;28;20568;-68
2021/12/01 00:05:24;;;;;;;47.58;34.78;;;9.30;99.90;;;;;;4993932;28;20049;-68
2021/12/01 00:07:51;;;;;;;49.60;36.17;;;9.30;99.90;;;;;;5024449;28;20049;-68
2021/12/01 00:10:19;;;;;;;47.72;33.38;;;9.30;99.90;;;;;;5010158;28;20160;-68
2021/12/01 00:12:46;;;;;;;39.25;32.22;;;9.30;99.90;;;;;;4994209;28;20131;-67
2021/12/01 00:15:13;;;;;;;42.13;33.25;;;9.30;99.90;;;;;;4989199;28;20088;-67
2021/12/01 00:17:39;;;;;;;38.20;30.88;;;9.30;99.90;;;;;;4990316;28;20040;-68
2021/12/01 00:20:09;;;;;;;36.30;31.27;;;9.30;99.90;;;;;;4995703;28;20064;-70
2021/12/01 00:22:37;;;;;;;43.10;31.67;;;9.30;99.90;;;;;;5017358;28;20067;-72
2021/12/01 00:25:06;;;;;;;36.63;30.73;;;9.30;99.90;;;;;;4997766;28;20052;-72
2021/12/01 00:27:32;;;;;;;37.03;29.33;;;9.40;99.90;;;;;;4998278;28;20057;-71
2021/12/01 00:29:58;;;;;;;36.65;29.48;;;9.30;99.90;;;;;;4995714;28;20120;-69
2021/12/01 00:32:24;;;;;;;37.88;29.45;;;9.30;99.90;;;;;;4981095;28;20539;-69
2021/12/01 00:34:53;;;;;;;36.30;30.13;;;9.40;99.90;;;;;;4980074;28;20496;-71
2021/12/01 00:37:20;;;;;;;38.63;31.23;;;9.30;99.90;;;;;;4979802;28;20033;-71
2021/12/01 00:39:46;;;;;;;34.97;28.98;;;9.30;99.90;;;;;;4997035;28;20049;-71
2021/12/01 00:42:12;;;;;;;37.40;29.73;;;9.30;99.90;;;;;;5015584;28;20110;-71
2021/12/01 00:44:46;;;;;;;33.13;28.80;;;9.40;99.90;;;;;;4998158;28;20061;-71
2021/12/01 00:47:13;;;;;;;38.60;29.45;;;9.40;99.90;;;;;;4979061;28;20054;-73
2021/12/01 00:49:40;;;;;;;35.00;29.55;;;9.40;99.90;;;;;;4998317;28;20049;-72
2021/12/01 00:52:08;;;;;;;37.85;29.13;;;9.40;99.90;;;;;;5016684;28;20083;-70
2021/12/01 00:54:34;;;;;;;35.00;28.58;;;9.50;99.90;;;;;;4999380;28;20091;-71
2021/12/01 00:57:01;;;;;;;34.53;28.95;;;9.50;99.90;;;;;;5018087;28;20041;-71
2021/12/01 00:59:27;;;;;;;32.47;29.00;;;9.50;99.90;;;;;;5014678;28;20516;-72
2021/12/01 01:01:54;;;;;;;35.22;29.05;;;9.50;99.90;;;;;;5015742;28;20089;-72
2021/12/01 01:04:21;;;;;;;33.20;27.77;;;9.40;99.90;;;;;;4983996;28;20110;-71
2021/12/01 01:06:47;;;;;;;34.75;25.77;;;9.50;99.90;;;;;;4979992;28;20049;-71
2021/12/01 01:09:13;;;;;;;32.03;26.00;;;9.50;99.90;;;;;;5005798;28;20129;-71
2021/12/01 01:17:19;;;;;;;33.88;26.77;;;9.50;99.90;;;;;;5000824;28;20124;-72
2021/12/01 01:19:46;;;;;;;37.25;27.10;;;9.60;99.90;;;;;;4995809;28;20037;-72
2021/12/01 01:22:12;;;;;;;39.53;28.50;;;9.50;99.90;;;;;;5019148;28;20087;-71
2021/12/01 01:24:38;;;;;;;36.22;27.88;;;9.50;99.90;;;;;;5017991;28;20049;-72
2021/12/01 01:27:04;;;;;;;31.30;26.10;;;9.50;99.90;;;;;;4995730;28;20064;-71
2021/12/01 01:29:34;;;;;;;34.35;25.27;;;9.50;99.90;;;;;;4996458;28;20071;-72
2021/12/01 01:32:00;;;;;;;35.67;23.88;;;9.50;99.90;;;;;;5011485;28;20045;-69
2021/12/01 01:34:27;;;;;;;30.08;22.88;;;9.50;99.90;;;;;;4996131;28;20057;-70
2021/12/01 01:36:53;;;;;;;29.33;23.27;;;9.50;99.90;;;;;;5012210;28;20381;-70
2021/12/01 01:39:22;;;;;;;29.67;23.98;;;9.50;99.90;;;;;;4996371;28;20057;-70
2021/12/01 01:41:48;;;;;;;28.48;22.55;;;9.50;99.90;;;;;;5012791;28;20049;-72
2021/12/01 01:44:14;;;;;;;33.55;23.85;;;9.50;99.90;;;;;;5013636;28;20046;-72
2021/12/01 01:46:41;;;;;;;28.05;22.33;;;9.40;99.90;;;;;;4972932;28;20107;-71
2021/12/01 01:49:14;;;;;;;29.63;22.00;;;9.50;99.90;;;;;;5010109;28;20096;-71
2021/12/01 01:51:41;;;;;;;31.02;22.90;;;9.50;99.90;;;;;;5018051;28;20423;-69
2021/12/01 01:54:07;;;;;;;30.58;22.75;;;9.50;99.90;;;;;;4960563;28;20112;-70
2021/12/01 01:56:33;;;;;;;29.85;22.45;;;9.50;99.90;;;;;;4977042;28;20103;-70
2021/12/01 01:58:59;;;;;;;31.30;22.88;;;9.50;99.90;;;;;;4978348;28;20053;-69
2021/12/01 02:03:59;;;;;;;31.05;22.23;;;9.50;99.90;;;;;;4997422;28;20584;-68
2021/12/01 02:06:26;;;;;;;31.35;20.38;;;9.50;99.90;;;;;;5011304;28;20073;-67
2021/12/01 02:08:54;;;;;;;33.28;22.58;;;9.50;99.90;;;;;;4994464;28;20119;-68
2021/12/01 02:11:22;;;;;;;27.85;19.25;;;9.50;99.90;;;;;;4994539;28;20388;-69
2021/12/01 02:13:48;;;;;;;24.10;18.52;;;9.50;99.90;;;;;;5011165;28;20061;-68
2021/12/01 02:16:16;;;;;;;25.05;17.63;;;9.50;99.90;;;;;;5010272;28;20050;-66
2021/12/01 02:18:45;;;;;;;22.33;15.30;;;9.60;99.90;;;;;;5012393;28;20378;-66
2021/12/01 02:21:27;;;;;;;22.20;15.88;;;9.50;99.90;;;;;;4995592;28;20091;-68
2021/12/01 02:24:08;;;;;;;19.23;14.40;;;9.60;99.90;;;;;;5014845;28;20118;-68
2021/12/01 02:26:38;;;;;;;14.93;11.85;;;9.60;99.90;;;;;;5012513;28;20239;-68
2021/12/01 02:29:08;;;;;;;16.42;12.60;;;9.70;99.90;;;;;;5011623;28;20112;-68
2021/12/01 02:31:36;;;;;;;20.85;14.32;;;9.70;99.90;;;;;;4994836;28;20084;-68
2021/12/01 02:34:04;;;;;;;16.00;13.38;;;9.70;99.90;;;;;;4994927;28;20116;-67
2021/12/01 02:36:31;;;;;;;17.63;12.40;;;9.70;99.90;;;;;;5012471;28;20049;-67
2021/12/01 02:38:57;;;;;;;17.42;12.18;;;9.70;99.90;;;;;;5011016;28;20128;-67
2021/12/01 02:41:29;;;;;;;15.93;12.23;;;9.70;99.90;;;;;;4979358;28;20382;-66
2021/12/01 02:43:56;;;;;;;14.95;11.18;;;9.70;99.90;;;;;;5010738;28;20505;-66
2021/12/01 02:46:22;;;;;;;15.18;11.30;;;9.70;99.90;;;;;;4982931;28;20060;-66
2021/12/01 02:48:49;;;;;;;14.02;10.95;;;9.70;99.90;;;;;;4994515;28;20057;-66
2021/12/01 02:51:17;;;;;;;15.38;10.75;;;9.70;99.90;;;;;;4978968;28;20085;-67
2021/12/01 02:53:44;;;;;;;14.65;11.32;;;9.70;99.90;;;;;;4995447;28;20045;-66
2021/12/01 02:56:10;;;;;;;11.77;9.40;;;9.70;99.90;;;;;;4989012;28;20140;-67
2021/12/01 02:58:40;;;;;;;12.00;9.25;;;9.70;99.90;;;;;;4995612;28;20083;-66
2021/12/01 03:01:19;;;;;;;10.23;8.52;;;9.80;99.90;;;;;;5009904;28;20095;-65
2021/12/01 03:03:45;;;;;;;9.85;8.77;;;9.80;99.90;;;;;;5001676;28;20436;-66
2021/12/01 03:06:12;;;;;;;10.85;8.85;;;9.80;99.90;;;;;;5012211;28;20087;-66
2021/12/01 03:08:43;;;;;;;10.02;8.10;;;9.80;99.90;;;;;;5011518;28;20045;-65
2021/12/01 03:11:09;;;;;;;9.40;7.38;;;9.80;99.90;;;;;;5010596;28;20137;-66
2021/12/01 03:13:36;;;;;;;8.73;5.30;;;9.80;99.90;;;;;;5030486;28;20049;-66
2021/12/01 03:16:02;;;;;;;6.65;4.55;;;9.80;99.90;;;;;;4982162;28;20049;-66
2021/12/01 03:18:28;;;;;;;8.15;4.82;;;9.80;99.90;;;;;;4986982;28;20042;-66
2021/12/01 03:20:55;;;;;;;9.18;4.53;;;9.80;99.90;;;;;;4990306;28;20053;-67
2021/12/01 03:23:22;;;;;;;10.27;3.50;;;9.70;99.90;;;;;;4994656;28;20056;-66
2021/12/01 03:25:48;;;;;;;10.25;3.47;;;9.80;99.90;;;;;;5003700;28;20136;-65
2021/12/01 03:28:14;;;;;;;10.88;3.38;;;9.80;99.90;;;;;;5010489;28;20045;-65
2021/12/01 03:30:41;;;;;;;7.50;2.92;;;9.70;99.90;;;;;;5001943;28;20045;-66
2021/12/01 03:33:09;;;;;;;7.40;3.15;;;9.70;99.90;;;;;;5010802;28;20127;-66
2021/12/01 03:35:38;;;;;;;11.13;4.07;;;9.70;99.90;;;;;;4993631;28;20115;-66
2021/12/01 03:38:05;;;;;;;9.13;3.38;;;9.60;99.90;;;;;;4979194;28;20049;-67
2021/12/01 03:40:31;;;;;;;7.07;3.78;;;9.60;99.90;;;;;;4995304;28;20049;-67
2021/12/01 03:42:58;;;;;;;5.93;3.55;;;9.70;99.90;;;;;;4959516;28;20045;-67
2021/12/01 03:45:24;;;;;;;7.43;3.85;;;9.70;99.90;;;;;;4999216;28;20045;-67
2021/12/01 03:47:50;;;;;;;10.00;4.20;;;9.70;99.90;;;;;;4997490;28;20045;-67
2021/12/01 03:50:16;;;;;;;6.53;3.67;;;9.60;99.90;;;;;;4979420;28;20064;-67
2021/12/01 03:52:43;;;;;;;10.10;4.30;;;9.60;99.90;;;;;;5011242;28;20451;-67
2021/12/01 03:55:13;;;;;;;7.03;4.25;;;9.60;99.90;;;;;;4998843;28;20682;-67
2021/12/01 03:57:40;;;;;;;7.63;3.70;;;9.60;99.90;;;;;;5014482;28;20061;-69
2021/12/01 04:00:10;;;;;;;8.30;4.32;;;9.70;99.90;;;;;;5015375;28;20061;-68
2021/12/01 04:02:39;;;;;;;6.47;3.63;;;9.70;99.90;;;;;;5016103;28;20053;-66
2021/12/01 04:05:06;;;;;;;5.82;3.33;;;9.70;99.90;;;;;;4999722;28;20066;-66
2021/12/01 04:07:32;;;;;;;7.97;3.85;;;9.60;99.90;;;;;;5018029;28;20393;-66
2021/12/01 04:09:59;;;;;;;5.22;3.58;;;9.70;99.90;;;;;;5001353;28;20053;-68
2021/12/01 04:12:25;;;;;;;6.55;4.10;;;9.60;99.90;;;;;;5022483;28;20614;-66
2021/12/01 04:14:51;;;;;;;7.45;4.28;;;9.60;99.90;;;;;;4984513;28;20045;-66
2021/12/01 04:17:18;;;;;;;8.52;5.10;;;9.60;99.90;;;;;;5022205;28;20067;-66
2021/12/01 04:19:45;;;;;;;6.68;4.03;;;9.60;99.90;;;;;;5016874;28;20103;-66
2021/12/01 04:22:11;;;;;;;11.40;5.07;;;9.50;99.90;;;;;;4997355;28;20080;-67
2021/12/01 04:24:38;;;;;;;6.88;4.60;;;9.50;99.90;;;;;;5030519;28;20045;-67
2021/12/01 04:27:05;;;;;;;6.03;3.90;;;9.50;99.90;;;;;;4997356;28;20076;-66
2021/12/01 04:29:31;;;;;;;7.72;3.80;;;9.50;99.90;;;;;;5003867;28;20057;-66
2021/12/01 04:31:57;;;;;;;6.70;3.80;;;9.50;99.90;;;;;;4964799;28;20107;-68
2021/12/01 04:34:23;;;;;;;5.93;3.45;;;9.50;99.90;;;;;;5014395;28;20052;-66
2021/12/01 04:36:50;;;;;;;6.20;3.45;;;9.50;99.90;;;;;;5015350;28;20047;-66
2021/12/01 04:39:18;;;;;;;5.20;3.72;;;9.50;99.90;;;;;;5022583;28;20054;-67
2021/12/01 04:42:04;;;;;;;5.60;4.03;;;9.50;99.90;;;;;;4980697;28;20057;-67
2021/12/01 04:44:31;;;;;;;7.05;4.85;;;9.50;99.90;;;;;;5012010;28;20087;-66
2021/12/01 04:46:58;;;;;;;5.60;4.53;;;9.40;99.90;;;;;;5030810;28;20100;-66
2021/12/01 04:49:26;;;;;;;9.65;6.00;;;9.40;99.90;;;;;;4997369;28;20132;-66
2021/12/01 04:51:55;;;;;;;6.20;5.22;;;9.40;99.90;;;;;;5024300;28;20065;-65
2021/12/01 04:54:23;;;;;;;6.60;5.75;;;9.40;99.90;;;;;;5002200;28;20049;-65
2021/12/01 04:56:50;;;;;;;6.00;5.40;;;9.30;99.90;;;;;;5016044;28;20041;-63
2021/12/01 04:59:18;;;;;;;6.82;5.85;;;9.30;99.90;;;;;;5015093;28;20051;-63
2021/12/01 05:01:45;;;;;;;6.40;5.70;;;9.30;99.90;;;;;;4982192;28;20061;-63
2021/12/01 05:04:11;;;;;;;6.80;5.80;;;9.30;99.90;;;;;;4981699;28;20059;-63
2021/12/01 05:06:38;;;;;;;6.68;5.43;;;9.30;99.90;;;;;;4998347;28;20481;-63
2021/12/01 05:09:07;;;;;;;6.55;5.68;;;9.30;99.90;;;;;;5001011;28;20045;-64
2021/12/01 05:11:33;;;;;;;7.50;6.25;;;9.30;99.90;;;;;;5033672;28;20447;-64
2021/12/01 05:14:00;;;;;;;6.35;5.32;;;9.20;99.90;;;;;;5014393;28;20053;-64
2021/12/01 05:16:26;;;;;;;6.35;5.55;;;9.20;99.90;;;;;;4996968;28;20038;-63
2021/12/01 05:18:52;;;;;;;8.75;5.50;;;9.20;99.90;;;;;;4997199;28;20112;-63
2021/12/01 05:21:19;;;;;;;7.18;5.40;;;9.20;99.90;;;;;;5022164;28;20099;-63
2021/12/01 05:23:45;;;;;;;6.18;5.57;;;9.10;99.90;;;;;;4998767;28;20041;-64
2021/12/01 05:26:12;;;;;;;5.68;5.00;;;9.20;99.90;;;;;;4997678;28;20044;-63
2021/12/01 05:28:39;;;;;;;7.55;6.28;;;9.10;99.90;;;;;;4981925;28;20128;-66
2021/12/01 05:31:07;;;;;;;6.40;5.80;;;9.10;99.90;;;;;;5014136;28;20103;-64
2021/12/01 05:33:34;;;;;;;7.65;6.20;;;9.10;99.90;;;;;;4980338;28;20065;-66
2021/12/01 05:36:00;;;;;;;6.53;5.88;;;9.10;99.90;;;;;;4977373;28;20053;-66
2021/12/01 05:38:26;;;;;;;7.63;6.32;;;9.00;99.90;;;;;;5011042;28;20108;-63
2021/12/01 05:40:53;;;;;;;7.43;6.53;;;9.00;99.90;;;;;;5013367;28;20049;-66
2021/12/01 05:43:19;;;;;;;7.50;6.53;;;9.00;99.90;;;;;;4996405;28;20474;-63
2021/12/01 05:45:46;;;;;;;6.65;5.90;;;9.00;99.90;;;;;;4998652;28;20088;-66
2021/12/01 05:48:14;;;;;;;7.53;6.13;;;9.00;99.90;;;;;;5024826;28;20060;-65
2021/12/01 05:50:40;;;;;;;6.22;5.60;;;9.00;99.90;;;;;;5028034;28;20112;-67
2021/12/01 05:53:06;;;;;;;6.82;5.63;;;8.90;99.90;;;;;;5019396;28;20136;-65
2021/12/01 05:55:32;;;;;;;7.80;6.05;;;8.90;99.90;;;;;;5012304;28;20041;-66
2021/12/01 05:57:58;;;;;;;6.07;5.10;;;8.90;99.90;;;;;;5010275;28;20037;-65
2021/12/01 06:00:25;;;;;;;5.78;3.90;;;8.90;99.90;;;;;;4994730;28;20080;-65
2021/12/01 06:02:52;;;;;;;5.68;4.40;;;8.90;99.90;;;;;;5025966;28;20049;-65
2021/12/01 06:05:21;;;;;;;6.95;4.25;;;8.80;99.90;;;;;;5023094;28;20041;-65
2021/12/01 06:07:48;;;;;;;6.25;4.05;;;8.80;99.90;;;;;;5030172;28;20394;-62
2021/12/01 06:10:16;;;;;;;5.18;3.80;;;8.80;99.90;;;;;;5026530;28;20084;-62
2021/12/01 06:12:44;;;;;;;6.07;3.90;;;8.80;99.90;;;;;;5030219;28;20439;-63
2021/12/01 06:15:13;;;;;;;6.25;4.10;;;8.70;99.90;;;;;;5030541;28;20060;-62
2021/12/01 06:17:40;;;;;;;6.57;3.88;;;8.70;99.90;;;;;;5012512;28;20045;-62
2021/12/01 06:20:08;;;;;;;4.95;4.20;;;8.70;99.90;;;;;;5011989;28;20037;-58
2021/12/01 06:22:34;;;;;;;4.28;3.58;;;8.70;99.90;;;;;;5032654;28;20049;-60
2021/12/01 06:25:01;;;;;;;4.38;3.40;;;8.70;99.90;;;;;;5029809;28;20045;-60
2021/12/01 06:27:27;;;;;;;4.60;4.03;;;8.60;99.90;;;;;;4995793;28;20081;-65
2021/12/01 06:29:54;;;;;;;5.38;4.40;;;8.70;99.90;;;;;;5012446;28;20132;-60
2021/12/01 06:32:20;;;;;;;4.35;3.78;;;8.60;99.90;;;;;;5012521;28;20045;-60
2021/12/01 06:34:46;;;;;;;4.60;3.58;;;8.60;99.90;;;;;;5012730;28;20076;-60
2021/12/01 06:37:12;;;;;;;4.78;4.25;;;8.60;99.90;;;;;;5029899;28;20041;-60
2021/12/01 06:39:39;;;;;;;4.60;3.92;;;8.60;99.90;;;;;;5023963;28;20393;-60
2021/12/01 06:42:05;;;;;;;4.63;4.00;;;8.60;99.90;;;;;;5022404;28;20049;-65
2021/12/01 06:44:33;;;;;;;4.97;4.22;;;8.60;99.90;;;;;;5006853;28;20053;-65
2021/12/01 06:47:02;;;;;;;5.10;4.20;;;8.60;99.90;;;;;;5029645;28;20484;-65
2021/12/01 06:49:28;;;;;;;5.20;4.20;;;8.60;99.90;;;;;;5025727;28;20075;-61
2021/12/01 06:51:55;;;;;;;5.30;4.00;;;8.60;99.90;;;;;;5020728;28;20063;-66
2021/12/01 06:54:21;;;;;;;5.15;4.53;;;8.60;99.90;;;;;;5030477;28;20054;-60
2021/12/01 06:56:47;;;;;;;4.60;4.13;;;8.50;99.90;;;;;;5029472;28;20069;-60
2021/12/01 06:59:13;;;;;;;7.05;4.32;;;8.60;99.90;;;;;;5029739;28;20135;-59
2021/12/01 07:01:40;;;;;;;5.43;3.92;;;8.50;99.90;;;;;;5013427;28;20092;-60
2021/12/01 07:04:06;;;;;;;5.72;4.40;;;8.50;99.90;;;;;;5013511;28;20104;-59
2021/12/01 07:06:32;;;;;;;4.50;3.97;;;8.50;99.90;;;;;;5018859;28;20060;-60
2021/12/01 07:09:01;;;;;;;5.57;3.78;;;8.50;99.90;;;;;;5007205;28;20053;-64
2021/12/01 07:11:28;;;;;;;4.97;4.20;;;8.50;99.90;;;;;;5027281;28;20053;-64
2021/12/01 07:13:55;;;;;;;5.10;4.40;;;8.50;99.90;;;;;;5009492;28;20049;-65
2021/12/01 07:16:22;;;;;;;5.15;4.30;;;8.50;99.90;;;;;;4981569;28;20048;-64
2021/12/01 07:18:48;;;;;;;5.13;3.80;;;8.50;99.90;;;;;;4998883;28;20100;-61
2021/12/01 07:21:14;;;;;;;5.35;4.45;;;8.50;99.90;;;;;;5020082;28;20129;-60
2021/12/01 07:23:40;;;;;;;5.05;4.22;;;8.50;99.90;;;;;;5027207;28;21000;-64
2021/12/01 07:26:06;;;;;;;5.40;4.50;;;8.50;99.90;;;;;;5027443;28;20049;-59
2021/12/01 07:28:32;;;;;;;4.60;3.65;;;8.50;99.90;;;;;;5031503;28;20575;-60
2021/12/01 07:30:59;;;;;;;5.63;4.40;;;8.50;99.90;;;;;;5031686;28;20049;-65
2021/12/01 07:33:25;;;;;;;5.75;4.45;;;8.50;99.90;;;;;;5021762;28;20046;-65
2021/12/01 07:35:52;;;;;;;3.97;3.58;;;8.50;99.90;;;;;;5002642;28;20103;-65
2021/12/01 07:38:18;;;;;;;6.57;5.07;;;8.50;99.90;;;;;;5013696;28;20088;-65
2021/12/01 07:40:44;;;;;;;5.35;4.70;;;8.50;99.90;;;;;;4998303;28;20121;-66
2021/12/01 07:43:10;;;;;;;6.07;4.40;;;8.50;99.90;;;;;;4986998;28;20083;-65
2021/12/01 07:45:36;;;;;;;5.53;4.50;;;8.50;99.90;;;;;;5028756;28;20393;-66
2021/12/01 07:48:03;;;;;;;8.60;5.35;;;8.50;99.90;;;;;;4991396;28;20042;-65
2021/12/01 07:50:29;;;;;;;7.05;5.03;;;8.50;99.90;;;;;;4999401;28;20140;-66
2021/12/01 07:52:55;;;;;;;6.75;5.35;;;8.50;99.90;;;;;;5013315;28;20061;-65
2021/12/01 07:55:21;;;;;;;5.30;4.70;;;8.50;99.90;;;;;;5029810;28;20358;-65
2021/12/01 07:57:47;;;;;;;5.93;5.28;;;8.50;99.90;;;;;;4998494;28;20107;-65
2021/12/01 08:00:14;;;;;;;5.88;5.10;;;8.50;99.90;;;;;;5031776;28;20115;-65
2021/12/01 08:02:40;;;;;;;5.95;5.35;;;8.50;99.90;;;;;;5021476;28;20068;-66
2021/12/01 08:05:07;;;;;;;5.97;5.38;;;8.50;99.90;;;;;;4998228;28;20061;-66
2021/12/01 08:07:36;;;;;;;5.97;4.88;;;8.50;99.90;;;;;;5015212;28;20057;-66
2021/12/01 08:10:07;;;;;;;5.72;4.65;;;8.50;99.90;;;;;;5014196;28;20056;-65
2021/12/01 08:12:34;;;;;;;7.50;4.93;;;8.60;99.90;;;;;;5032399;28;20115;-65
2021/12/01 08:15:05;;;;;;;6.53;4.65;;;8.60;99.90;;;;;;5032155;28;20439;-65
2021/12/01 08:17:32;;;;;;;5.70;4.68;;;8.60;99.90;;;;;;5014205;28;20049;-65
2021/12/01 08:19:58;;;;;;;6.50;5.03;;;8.70;99.90;;;;;;5031957;28;20439;-65
2021/12/01 08:22:28;;;;;;;5.10;4.60;;;8.60;99.90;;;;;;5002482;28;20088;-65
2021/12/01 08:24:57;;;;;;;5.43;4.72;;;8.70;99.90;;;;;;5014216;28;20058;-61
2021/12/01 08:27:24;;;;;;;4.82;4.32;;;8.70;99.90;;;;;;4981075;28;20108;-65
2021/12/01 08:29:51;;;;;;;9.15;5.70;;;8.70;99.90;;;;;;4979564;28;20049;-65
2021/12/01 08:32:18;;;;;;;6.32;5.22;;;8.70;99.90;;;;;;5013345;28;20111;-65
2021/12/01 08:34:49;;;;;;;6.95;5.20;;;8.70;99.90;;;;;;5013844;28;20057;-65
2021/12/01 08:37:18;;;;;;;5.80;4.85;;;8.70;99.90;;;;;;5031130;28;20050;-65
2021/12/01 08:39:47;;;;;;;7.10;6.10;;;8.70;99.90;;;;;;5009353;28;20501;-64
2021/12/01 08:42:15;;;;;;;6.85;5.35;;;8.70;99.90;;;;;;5031413;28;20123;-64
2021/12/01 08:44:47;;;;;;;6.38;5.68;;;8.70;99.90;;;;;;5018075;28;20053;-61
2021/12/01 08:47:15;;;;;;;8.82;6.45;;;8.80;99.90;;;;;;5031156;28;20115;-65
2021/12/01 08:49:42;;;;;;;9.63;6.53;;;8.80;99.90;;;;;;5027253;28;20561;-66
2021/12/01 08:52:09;;;;;;;10.88;8.40;;;8.80;99.90;;;;;;5009902;28;20186;-65
2021/12/01 08:54:36;;;;;;;7.07;5.40;;;8.80;99.90;;;;;;5016340;28;20049;-65
2021/12/01 08:57:03;;;;;;;8.18;5.63;;;8.70;99.90;;;;;;5010296;28;20044;-65
2021/12/01 08:59:30;;;;;;;6.72;4.93;;;8.70;99.90;;;;;;5005346;28;20107;-64
2021/12/01 09:01:56;;;;;;;11.23;3.63;;;8.70;99.90;;;;;;5030362;28;20053;-65
2021/12/01 09:04:22;;;;;;;10.85;2.95;;;8.70;99.90;;;;;;5017034;28;20077;-65
2021/12/01 09:06:49;;;;;;;9.73;2.95;;;8.60;99.90;;;;;;5010752;28;20049;-61
2021/12/01 09:09:18;;;;;;;17.30;11.32;;;8.60;99.90;;;;;;4994395;28;20477;-58
2021/12/01 09:11:47;;;;;;;10.02;2.90;;;8.70;99.90;;;;;;5029412;28;20126;-62
2021/12/01 09:14:14;;;;;;;13.90;3.13;;;8.70;99.90;;;;;;5046538;28;20492;-59
2021/12/01 09:16:41;;;;;;;8.65;3.10;;;8.60;99.90;;;;;;4979413;28;20052;-60
2021/12/01 09:19:08;;;;;;;8.98;3.00;;;8.60;99.90;;;;;;4995832;28;20107;-59
2021/12/01 09:21:35;;;;;;;14.07;3.30;;;8.70;99.90;;;;;;5021855;28;20091;-58
2021/12/01 09:24:02;;;;;;;15.00;2.95;;;8.70;99.90;;;;;;5013535;28;20049;-58
2021/12/01 09:26:28;;;;;;;10.50;3.03;;;8.70;99.90;;;;;;5024762;28;20786;-59
2021/12/01 09:28:54;;;;;;;9.45;2.05;;;8.70;99.90;;;;;;5013554;28;20503;-59
2021/12/01 09:31:21;;;;;;;10.15;2.25;;;8.70;99.90;;;;;;5029667;28;20434;-60
2021/12/01 09:33:47;;;;;;;10.95;2.53;;;8.70;99.90;;;;;;4996889;28;20045;-59
2021/12/01 09:36:14;;;;;;;9.23;1.83;;;8.60;99.90;;;;;;5028226;28;20046;-58
2021/12/01 09:38:41;;;;;;;10.98;1.77;;;8.50;99.90;;;;;;5033078;28;20046;-64
2021/12/01 09:41:07;;;;;;;11.00;1.90;;;8.50;99.90;;;;;;5030792;28;20511;-64
2021/12/01 09:43:34;;;;;;;7.90;1.65;;;8.40;99.90;;;;;;5010949;28;20124;-63
2021/12/01 09:46:04;;;;;;;9.73;2.40;;;8.40;99.90;;;;;;5011379;28;20358;-63
2021/12/01 09:48:35;;;;;;;11.02;2.60;;;8.40;99.90;;;;;;5030066;28;20916;-63
2021/12/01 09:51:02;;;;;;;12.38;3.25;;;8.40;99.90;;;;;;5009174;28;20489;-64
2021/12/01 09:53:29;;;;;;;13.32;3.47;;;8.40;99.90;;;;;;4978225;28;20049;-64
2021/12/01 09:55:55;;;;;;;8.57;2.40;;;8.40;99.90;;;;;;5028143;28;20492;-64
2021/12/01 09:58:24;;;;;;;14.35;2.10;;;8.40;99.90;;;;;;4990998;28;20042;-64
2021/12/01 10:00:54;;;;;;;13.15;2.88;;;8.40;99.90;;;;;;5026382;28;20052;-58
2021/12/01 10:03:21;;;;;;;9.07;2.22;;;8.40;99.90;;;;;;5011172;28;20045;-63
2021/12/01 10:06:03;;;;;;;8.07;1.60;;;8.30;99.90;;;;;;5012779;28;20128;-59
2021/12/01 10:08:41;;;;;;;9.40;2.25;;;8.40;99.90;;;;;;5012984;28;20041;-63
2021/12/01 10:11:17;;;;;;;8.18;1.30;;;8.40;99.90;;;;;;5027111;28;20046;-60
2021/12/01 10:14:08;;;;;;;10.82;2.25;;;8.40;99.90;;;;;;5019120;28;20103;-59
2021/12/01 10:16:41;;;;;;;11.02;2.63;;;8.50;99.90;;;;;;5009756;28;20053;-59
2021/12/01 10:19:15;;;;;;;10.05;2.60;;;8.50;99.90;;;;;;5030272;28;20492;-59
2021/12/01 10:21:46;;;;;;;11.57;1.90;;;8.50;99.90;;;;;;5030500;28;20054;-59
2021/12/01 10:24:18;;;;;;;12.15;2.70;;;8.50;99.90;;;;;;5029929;28;20496;-59
2021/12/01 10:26:46;;;;;;;;;;;8.50;99.90;;;;;;5003936;28;20111;-59
2021/12/01 10:29:29;;;;;;;11.43;1.70;;;8.50;99.90;;;;;;5008808;28;19960;-58
2021/12/01 10:32:01;;;;;;;15.57;3.22;;;8.50;99.90;;;;;;5011168;28;20053;-59
2021/12/01 10:34:43;;;;;;;12.23;2.92;;;8.50;99.90;;;;;;5011706;28;20059;-58
2021/12/01 10:37:31;;;;;;;8.57;1.85;;;8.50;99.90;;;;;;4976270;28;20108;-64
2021/12/01 10:40:23;;;;;;;10.65;1.88;;;8.60;99.90;;;;;;5009669;28;20093;-64
2021/12/01 10:42:57;;;;;;;9.32;2.20;;;8.50;99.90;;;;;;5008523;28;20435;-64
2021/12/01 10:45:29;;;;;;;12.00;2.33;;;8.60;99.90;;;;;;4990926;28;20408;-64
2021/12/01 10:47:57;;;;;;;10.63;1.92;;;8.60;99.90;;;;;;5010709;28;20061;-64
2021/12/01 10:50:26;;;;;;;15.85;2.90;;;8.60;99.90;;;;;;5010631;28;20128;-61
2021/12/01 10:53:13;;;;;;;10.73;2.70;;;8.70;99.90;;;;;;5025620;28;20492;-64
2021/12/01 10:55:48;;;;;;;11.70;2.60;;;8.80;99.90;;;;;;5008345;28;20514;-64
2021/12/01 10:58:15;;;;;;;9.15;2.08;;;8.80;99.90;;;;;;5025322;28;20492;-64
2021/12/01 11:00:47;;;;;;;13.05;2.60;;;8.70;99.90;;;;;;4996550;28;20117;-59
2021/12/01 11:03:16;;;;;;;15.35;2.30;;;8.60;99.90;;;;;;5015093;28;20553;-59
2021/12/01 11:05:49;;;;;;;14.65;2.20;;;8.60;99.90;;;;;;5009365;28;20077;-64
2021/12/01 11:08:18;;;;;;;7.65;1.73;;;8.50;99.90;;;;;;5020305;28;20056;-64
2021/12/01 11:10:50;;;;;;;10.00;3.08;;;8.50;99.90;;;;;;5028584;28;20120;-64
2021/12/01 11:13:18;;;;;;;12.00;3.10;;;8.50;99.90;;;;;;5009666;28;20049;-64
2021/12/01 11:15:50;;;;;;;11.80;2.50;;;8.50;99.90;;;;;;5008572;28;20132;-64
2021/12/01 11:18:18;;;;;;;;;;;8.50;99.90;;;;;;4975620;28;20050;-64
2021/12/01 11:20:44;;;;;;;13.07;2.05;;;8.40;99.90;;;;;;4996266;28;19921;-64
2021/12/01 11:23:14;;;;;;;10.98;2.67;;;8.40;99.90;;;;;;5029314;28;20054;-64
2021/12/01 11:25:43;;;;;;;13.00;2.53;;;8.40;99.90;;;;;;5027648;28;20622;-64
2021/12/01 11:28:13;;;;;;;11.25;2.33;;;8.40;99.90;;;;;;5009148;28;20053;-64
2021/12/01 11:30:46;;;;;;;13.00;2.25;;;8.40;99.90;;;;;;5020615;28;20045;-64
2021/12/01 11:33:16;;;;;;;15.65;2.63;;;8.40;99.90;;;;;;4995715;28;20127;-64
2021/12/01 11:35:58;;;;;;;15.90;3.22;;;8.40;99.90;;;;;;5010894;28;20052;-63
2021/12/01 11:38:24;;;;;;;21.08;3.15;;;8.40;99.90;;;;;;5010309;28;20077;-58
2021/12/01 11:40:51;;;;;;;13.45;2.92;;;8.40;99.90;;;;;;5028399;28;20476;-59
2021/12/01 11:43:21;;;;;;;22.10;4.35;;;8.40;99.90;;;;;;5011224;28;20053;-64
2021/12/01 11:45:48;;;;;;;16.83;3.53;;;8.50;99.90;;;;;;5010797;28;20148;-64
2021/12/01 11:48:29;;;;;;;14.98;3.72;;;8.50;99.90;;;;;;5008958;28;20096;-59
2021/12/01 11:51:17;;;;;;;18.57;3.60;;;8.40;99.90;;;;;;5017197;28;20049;-64
2021/12/01 11:53:51;;;;;;;18.15;3.58;;;8.40;99.90;;;;;;5019524;28;20053;-63
2021/12/01 11:56:37;;;;;;;18.15;3.83;;;8.40;99.90;;;;;;5015329;28;20408;-58
2021/12/01 11:59:19;;;;;;;21.98;3.63;;;8.30;99.90;;;;;;4984658;28;20128;-60
2021/12/01 12:01:51;;;;;;;17.00;3.30;;;8.30;99.90;;;;;;5018533;28;20116;-60
2021/12/01 12:04:23;;;;;;;18.83;3.72;;;8.30;99.90;;;;;;5018413;28;20065;-60
2021/12/01 12:06:59;;;;;;;;;;;8.30;99.90;;;;;;5021736;28;20042;-64
2021/12/01 12:09:28;;;;;;;22.15;4.38;;;8.30;99.90;;;;;;4981800;28;19921;-64
2021/12/01 12:11:56;;;;;;;20.15;3.83;;;8.20;99.90;;;;;;5007820;28;20050;-65
2021/12/01 12:14:28;;;;;;;14.60;3.58;;;8.20;99.90;;;;;;4988846;28;20639;-64
2021/12/01 12:17:06;;;;;;;21.58;4.25;;;8.20;99.90;;;;;;5000883;28;20046;-65
2021/12/01 12:19:54;;;;;;;11.65;3.67;;;8.20;99.90;;;;;;5012120;28;20072;-64
2021/12/01 12:25:02;;;;;;;15.75;3.63;;;8.20;99.90;;;;;;5002129;28;20053;-65
2021/12/01 12:27:35;;;;;;;16.52;3.67;;;8.20;99.90;;;;;;5023725;28;20045;-65
2021/12/01 12:30:15;;;;;;;17.92;3.67;;;8.10;99.90;;;;;;4988482;28;20153;-65
2021/12/01 12:32:45;;;;;;;18.55;3.90;;;8.10;99.90;;;;;;4970857;28;20212;-65
2021/12/01 12:35:16;;;;;;;14.10;3.05;;;8.10;99.90;;;;;;5021645;28;20112;-63
2021/12/01 12:37:43;;;;;;;17.67;4.25;;;8.00;99.90;;;;;;5036287;28;20091;-63
2021/12/01 12:40:32;;;;;;;18.42;3.83;;;8.00;99.90;;;;;;5021235;28;20046;-64
2021/12/01 12:43:07;;;;;;;17.83;3.80;;;8.30;99.90;;;;;;5016109;28;20045;-65
2021/12/01 12:45:34;;;;;;;14.57;4.35;;;8.50;99.90;;;;;;5012952;28;20050;-64
2021/12/01 12:48:01;;;;;;;21.40;3.83;;;8.60;99.90;;;;;;5012365;28;20052;-64
2021/12/01 12:50:27;;;;;;;19.27;3.75;;;8.60;99.90;;;;;;4997567;28;20112;-60
2021/12/01 12:53:03;;;;;;;21.55;4.88;;;8.50;99.90;;;;;;5012058;28;20053;-59
2021/12/01 12:55:29;;;;;;;17.60;3.20;;;8.30;99.90;;;;;;5021944;28;20048;-60
2021/12/01 12:58:01;;;;;;;15.90;3.50;;;8.10;99.90;;;;;;5012897;28;20053;-59
2021/12/01 13:00:38;;;;;;;14.98;3.90;;;8.00;99.90;;;;;;5031041;28;20056;-60
2021/12/01 13:03:29;;;;;;;14.98;2.72;;;7.90;99.90;;;;;;5027318;28;20057;-60
2021/12/01 13:06:19;;;;;;;16.90;3.42;;;7.90;99.90;;;;;;4989470;28;20085;-59
2021/12/01 13:08:47;;;;;;;16.05;2.83;;;7.90;99.90;;;;;;4990920;28;20110;-59